• Join FlightAware (Why Join?)
  • Login
  • US Flag 
12:25AM EDT


 

Airport Tracker/Info


-or-


 

Live Flight TrackerFlight Track Log ✈ N295DS ✈ 30-Oct-2013 ✈ KNEW - KSAT

Flight Track Log - Related Links

Times and Time Zones

All times are in EDT time to prevent confusion due to time zone crossing. See the N295DS flight status page for this flight to view local times or setup timezone preferences in your user account.

Time Position Orientation Groundspeed Altitude Reporting Facility
EDT Latitude Longitude Course Direction KTS MPH feet Rate Location/Type
09:37AM 30.0350 -89.9819 100° East 166 191 2,000  Level Houston Center
09:37AM 30.0342 -89.9753 98° East 162 186 2,500 2,700 Climbing Houston Center
09:38AM 30.0114 -90.0061 230° Southwest 250 288 4,800 2,760 Climbing Houston Center
09:39AM 29.9967 -90.0556 251° West 176 203 8,000 2,640 Climbing Houston Center
09:40AM 29.9803 -90.1097 251° West 174 200 10,300 2,340 Climbing Houston Center
09:41AM 29.9583 -90.1758 249° West 183 211 12,900 2,220 Climbing Houston Center
09:42AM 29.9383 -90.2325 248° West 189 217 15,000 1,980 Climbing Houston Center
09:43AM 29.9186 -90.2842 246° West 180 207 17,000 1,740 Climbing Houston Center
09:44AM 29.9003 -90.3408 250° West 186 214 18,600 1,560 Climbing Houston Center
09:45AM 29.8822 -90.3981 250° West 190 219 20,300 1,560 Climbing Houston Center
09:47AM 29.8631 -90.4583 250° West 199 229 21,900 1,560 Climbing Houston Center
09:48AM 29.8408 -90.5189 247° West 204 235 23,600 1,320 Climbing Houston Center
09:54AM 29.6818 -90.9042 247° West 231 266 31,300 1,020 Climbing FlightAware ADS-B
09:57AM 29.6644 -91.1723 266° West 252 290 34,000 600 Climbing FlightAware ADS-B
09:58AM 29.6662 -91.2142 273° West 262 302 34,000  Level FlightAware ADS-B
10:00AM 29.6753 -91.4387 273° West 287 330 34,000  Level FlightAware ADS-B
10:02AM 29.6802 -91.5622 273° West 290 334 34,000  Level FlightAware ADS-B
10:02AM 29.6820 -91.6097 273° West 290 334 34,000  Level FlightAware ADS-B
10:03AM 29.6862 -91.7193 273° West 293 337 34,000  Level FlightAware ADS-B
10:04AM 29.6880 -91.7694 272° West 294 338 34,000  Level FlightAware ADS-B
10:04AM 29.6898 -91.8175 272° West 294 338 34,000  Level FlightAware ADS-B
10:05AM 29.6916 -91.8657 272° West 294 338 34,000 900 Level FlightAware ADS-B
10:06AM 29.6937 -91.9220 272° West 291 335 35,100 1,200 Climbing FlightAware ADS-B
10:06AM 29.6952 -91.9636 272° West 259 298 35,400 600 Climbing FlightAware ADS-B
10:07AM 29.6966 -92.0049 272° West 255 293 35,700 480 Climbing FlightAware ADS-B
10:07AM 29.6981 -92.0468 272° West 255 293 35,900 240 Climbing FlightAware ADS-B
10:08AM 29.7000 -92.1001 272° West 257 296 36,000 60 Climbing FlightAware ADS-B
10:08AM 29.7015 -92.1433 272° West 267 307 36,000  Level FlightAware ADS-B
10:09AM 29.7030 -92.1866 272° West 273 314 36,000  Level FlightAware ADS-B
10:10AM 29.7053 -92.2540 272° West 278 320 36,000  Level FlightAware ADS-B
10:10AM 29.7077 -92.3247 272° West 280 322 36,000  Level FlightAware ADS-B
10:11AM 29.7091 -92.3694 272° West 280 322 36,000  Level FlightAware ADS-B
10:11AM 29.7106 -92.4154 272° West 280 322 36,000  Level FlightAware ADS-B
10:12AM 29.7132 -92.4940 272° West 281 323 36,000  Level FlightAware ADS-B
10:13AM 29.7146 -92.5390 272° West 281 323 36,000  Level FlightAware ADS-B
10:13AM 29.7160 -92.5841 272° West 282 325 36,000  Level FlightAware ADS-B
10:14AM 29.7174 -92.6296 272° West 282 325 36,000  Level FlightAware ADS-B
10:14AM 29.7189 -92.6785 272° West 283 326 36,000  Level FlightAware ADS-B
10:15AM 29.7204 -92.7274 272° West 281 323 36,000  Level FlightAware ADS-B
10:16AM 29.7222 -92.7893 272° West 282 325 36,000  Level FlightAware ADS-B
10:16AM 29.7236 -92.8359 272° West 283 326 36,000  Level FlightAware ADS-B
10:17AM 29.7250 -92.8819 272° West 283 326 36,000  Level FlightAware ADS-B
10:17AM 29.7263 -92.9274 272° West 284 327 36,000  Level FlightAware ADS-B
10:18AM 29.7276 -92.9738 272° West 285 328 36,000  Level FlightAware ADS-B
10:18AM 29.7289 -93.0214 272° West 284 327 36,000  Level FlightAware ADS-B
10:19AM 29.7302 -93.0696 272° West 285 328 36,000  Level FlightAware ADS-B
10:19AM 29.7316 -93.1171 272° West 287 330 36,000  Level FlightAware ADS-B
10:20AM 29.7328 -93.1633 272° West 290 334 36,000  Level FlightAware ADS-B
10:20AM 29.7340 -93.2096 272° West 291 335 36,000  Level FlightAware ADS-B
10:21AM 29.7352 -93.2564 272° West 292 336 36,000  Level FlightAware ADS-B
10:21AM 29.7365 -93.3027 272° West 292 336 36,000  Level FlightAware ADS-B
10:22AM 29.7377 -93.3520 272° West 292 336 36,000  Level FlightAware ADS-B
10:22AM 29.7389 -93.3986 272° West 292 336 36,000  Level FlightAware ADS-B
10:23AM 29.7402 -93.4515 272° West 293 337 36,000  Level FlightAware ADS-B
10:23AM 29.7414 -93.4998 272° West 295 339 36,000  Level FlightAware ADS-B
10:24AM 29.7426 -93.5472 272° West 295 339 36,000  Level FlightAware ADS-B
10:24AM 29.7437 -93.5943 272° West 295 339 36,000  Level FlightAware ADS-B
10:25AM 29.7448 -93.6421 272° West 295 339 36,000  Level FlightAware ADS-B
10:25AM 29.7458 -93.6891 271° West 294 338 36,000  Level FlightAware ADS-B
10:26AM 29.7469 -93.7364 272° West 295 339 36,000  Level FlightAware ADS-B
10:26AM 29.7480 -93.7847 272° West 294 338 36,000  Level FlightAware ADS-B
10:27AM 29.7490 -93.8321 271° West 295 339 36,000  Level FlightAware ADS-B
10:27AM 29.7500 -93.8800 271° West 296 341 36,000  Level FlightAware ADS-B
10:28AM 29.7510 -93.9273 271° West 297 342 36,000  Level FlightAware ADS-B
10:28AM 29.7521 -93.9784 271° West 298 343 36,000  Level FlightAware ADS-B
10:29AM 29.7530 -94.0268 271° West 299 344 36,000  Level FlightAware ADS-B
10:29AM 29.7540 -94.0758 271° West 300 345 36,000  Level FlightAware ADS-B
10:30AM 29.7550 -94.1245 271° West 301 346 36,000  Level FlightAware ADS-B
10:30AM 29.7560 -94.1727 271° West 304 350 36,000  Level FlightAware ADS-B
10:31AM 29.7569 -94.2227 271° West 305 351 36,000  Level FlightAware ADS-B
10:31AM 29.7579 -94.2721 271° West 306 352 36,000  Level FlightAware ADS-B
10:32AM 29.7588 -94.3220 271° West 307 353 36,000  Level FlightAware ADS-B
10:32AM 29.7596 -94.3715 271° West 308 354 36,000  Level FlightAware ADS-B
10:33AM 29.7605 -94.4209 271° West 309 356 36,000  Level FlightAware ADS-B
10:33AM 29.7614 -94.4709 271° West 309 356 36,000  Level FlightAware ADS-B
10:34AM 29.7621 -94.5206 271° West 309 356 36,000  Level FlightAware ADS-B
10:34AM 29.7630 -94.5709 271° West 308 354 36,000  Level FlightAware ADS-B
10:35AM 29.7637 -94.6115 271° West 307 353 36,000  Level FlightAware ADS-B
10:35AM 29.7644 -94.6589 271° West 306 352 36,000  Level FlightAware ADS-B
10:36AM 29.7652 -94.7090 271° West 306 352 36,000  Level FlightAware ADS-B
10:36AM 29.7659 -94.7575 271° West 305 351 36,000  Level FlightAware ADS-B
10:37AM 29.7666 -94.8073 271° West 305 351 36,000  Level FlightAware ADS-B
10:37AM 29.7673 -94.8557 271° West 304 350 36,000  Level FlightAware ADS-B
10:38AM 29.7680 -94.9046 271° West 304 350 36,000  Level FlightAware ADS-B
10:38AM 29.7686 -94.9534 271° West 304 350 36,000  Level FlightAware ADS-B
10:38AM 29.7686 -94.9479 90° East 304 350 36,000  Level FlightAware ADS-B
10:39AM 29.7692 -94.9981 271° West 303 349 36,000  Level FlightAware ADS-B
10:39AM 29.7693 -95.0040 271° West 303 349 36,000  Level FlightAware ADS-B
10:39AM 29.7699 -95.0535 271° West 303 349 36,000  Level FlightAware ADS-B
10:40AM 29.7705 -95.1026 271° West 300 345 36,000  Level FlightAware ADS-B
10:40AM 29.7711 -95.1504 271° West 299 344 36,000  Level FlightAware ADS-B
10:41AM 29.7712 -95.1639 271° West 298 343 36,000  Level FlightAware ADS-B
10:41AM 29.7716 -95.1995 271° West 298 343 36,000  Level FlightAware ADS-B
10:41AM 29.7720 -95.2274 271° West 298 343 36,000  Level FlightAware ADS-B
10:42AM 29.7722 -95.2489 271° West 299 344 36,000  Level FlightAware ADS-B
10:42AM 29.7727 -95.2968 271° West 299 344 36,000  Level FlightAware ADS-B
10:42AM 29.7731 -95.3299 271° West 297 342 36,000  Level FlightAware ADS-B
10:43AM 29.7732 -95.3451 270° West 297 342 36,000  Level FlightAware ADS-B
10:43AM 29.7737 -95.3929 271° West 295 339 36,000  Level FlightAware ADS-B
10:44AM 29.7742 -95.4464 271° West 294 338 36,000  Level FlightAware ADS-B
10:44AM 29.7747 -95.4949 271° West 294 338 36,000  Level FlightAware ADS-B
10:45AM 29.7751 -95.5429 271° West 294 338 36,000  Level FlightAware ADS-B
10:45AM 29.7756 -95.5907 271° West 295 339 36,000  Level FlightAware ADS-B
10:46AM 29.7759 -95.6394 270° West 296 341 36,000  Level FlightAware ADS-B
10:46AM 29.7763 -95.6888 271° West 298 343 36,000  Level FlightAware ADS-B
10:47AM 29.7770 -95.7828 270° West 296 341 36,000  Level FlightAware ADS-B
10:48AM 29.7773 -95.8301 270° West 296 341 36,000  Level FlightAware ADS-B
10:48AM 29.7776 -95.8779 270° West 298 343 36,000  Level FlightAware ADS-B
10:49AM 29.7779 -95.9263 270° West 299 344 36,000  Level FlightAware ADS-B
10:49AM 29.7782 -95.9750 270° West 299 344 36,000  Level FlightAware ADS-B
10:50AM 29.7784 -96.0228 270° West 299 344 36,000  Level FlightAware ADS-B
10:50AM 29.7787 -96.0715 270° West 302 348 36,000 -360 Level FlightAware ADS-B
10:51AM 29.7789 -96.1183 270° West 310 357 35,700 -720 Descending FlightAware ADS-B
10:51AM 29.7791 -96.1694 270° West 316 364 35,300 -720 Descending FlightAware ADS-B
10:51AM 29.7792 -96.1893 270° West 318 366 35,200 -540 Descending FlightAware ADS-B
10:52AM 29.7802 -96.2096 273° West 321 369 35,100 -600 Descending FlightAware ADS-B
10:52AM 29.7849 -96.2632 276° West 325 374 34,800 -600 Descending FlightAware ADS-B
10:53AM 29.7893 -96.3165 275° West 327 376 34,500 -720 Descending FlightAware ADS-B
10:53AM 29.7932 -96.3688 275° West 331 381 34,100 -720 Descending FlightAware ADS-B
10:54AM 29.7973 -96.4222 275° West 333 383 33,800 -720 Descending FlightAware ADS-B
10:54AM 29.8012 -96.4758 275° West 335 386 33,400 -720 Descending FlightAware ADS-B
10:55AM 29.8052 -96.5296 275° West 335 386 33,100 -720 Descending FlightAware ADS-B
10:55AM 29.8091 -96.5831 275° West 334 384 32,700 -720 Descending FlightAware ADS-B
10:56AM 29.8131 -96.6372 275° West 335 386 32,400 -720 Descending FlightAware ADS-B
10:56AM 29.8171 -96.6911 275° West 334 384 32,000 -720 Descending FlightAware ADS-B
10:57AM 29.8210 -96.7450 275° West 333 383 31,700 -840 Descending FlightAware ADS-B
10:57AM 29.8249 -96.7981 275° West 334 384 31,200 -1,020 Descending FlightAware ADS-B
10:58AM 29.8287 -96.8516 275° West 335 386 30,700 -1,020 Descending FlightAware ADS-B
10:58AM 29.8328 -96.9084 275° West 335 386 30,200 -960 Descending FlightAware ADS-B
10:59AM 29.8360 -96.9525 275° West 335 386 29,800 -1,140 Descending FlightAware ADS-B
10:59AM 29.8398 -97.0058 275° West 334 384 29,200 -1,320 Descending FlightAware ADS-B
11:00AM 29.8436 -97.0595 275° West 338 389 28,500 -1,680 Descending FlightAware ADS-B
11:00AM 29.8477 -97.1171 275° West 348 400 27,500 -2,040 Descending FlightAware ADS-B
11:01AM 29.8516 -97.1734 275° West 352 405 26,400 -2,100 Descending FlightAware ADS-B
11:01AM 29.8555 -97.2292 275° West 338 389 25,400 -2,280 Descending FlightAware ADS-B
11:02AM 29.8579 -97.2637 275° West 24,600 -2,520 Descending FlightAware ADS-B
11:02AM 29.8584 -97.2713 274° West 334 384 24,400 -2,520 Descending FlightAware ADS-B
11:02AM 29.8594 -97.2858 275° West 332 382 24,100 -2,040 Descending FlightAware ADS-B
11:02AM 29.8621 -97.3241 275° West 326 375 23,400 -1,980 Descending FlightAware ADS-B
11:02AM 29.8631 -97.3390 274° West 325 374 23,100 -1,980 Descending FlightAware ADS-B
11:03AM 29.8657 -97.3776 274° West 326 375 22,400 -1,980 Descending FlightAware ADS-B
11:03AM 29.8667 -97.3928 274° West 325 374 22,100 -2,040 Descending FlightAware ADS-B
11:03AM 29.8699 -97.4392 275° West 324 373 21,200 -2,160 Descending FlightAware ADS-B
11:03AM 29.8711 -97.4572 274° West 324 373 20,800 -2,040 Descending FlightAware ADS-B
11:04AM 29.8734 -97.4906 275° West 323 372 20,200 -1,980 Descending FlightAware ADS-B
11:04AM 29.8754 -97.5204 274° West 321 369 19,600 -2,040 Descending FlightAware ADS-B
11:04AM 29.8768 -97.5424 274° West 319 367 19,200 -1,800 Descending FlightAware ADS-B
11:04AM 29.8789 -97.5730 275° West 319 367 18,700 -1,800 Descending FlightAware ADS-B
11:05AM 29.8802 -97.5933 274° West 315 362 18,300 -1,620 Descending FlightAware ADS-B
11:05AM 29.8818 -97.6161 275° West 312 359 18,000 -1,500 Descending FlightAware ADS-B
11:05AM 29.8824 -97.6276 273° West 311 358 17,800 -1,740 Descending FlightAware ADS-B
11:05AM 29.8816 -97.6509 268° West 309 356 17,400 -1,920 Descending FlightAware ADS-B
11:05AM 29.8814 -97.6541 266° West 309 356 17,300 -2,100 Descending FlightAware ADS-B
11:06AM 29.8756 -97.7075 263° West 311 358 16,200 -2,100 Descending FlightAware ADS-B
11:06AM 29.8700 -97.7565 263° West 297 342 15,100 -2,160 Descending FlightAware ADS-B
11:07AM 29.8678 -97.7737 262° West 299 344 14,700 -2,220 Descending FlightAware ADS-B
11:07AM 29.8585 -97.8212 257° West 303 349 13,600 -1,680 Descending FlightAware ADS-B
11:08AM 29.8498 -97.8686 258° West 290 334 13,000 -600 Descending FlightAware ADS-B
11:08AM 29.8409 -97.9157 258° West 293 337 13,000 -600 Level FlightAware ADS-B
11:09AM 29.8320 -97.9626 258° West 288 331 12,400 -1,320 Descending FlightAware ADS-B
11:09AM 29.8234 -98.0079 258° West 289 333 11,700 -1,500 Descending FlightAware ADS-B
11:10AM 29.8157 -98.0480 258° West 276 318 11,000 -1,440 Descending FlightAware ADS-B
11:10AM 29.8125 -98.0628 256° West 270 311 10,800 -1,200 Descending FlightAware ADS-B
11:10AM 29.8046 -98.0825 245° Southwest 263 303 10,500 -1,320 Descending FlightAware ADS-B
11:10AM 29.7931 -98.1094 244° Southwest 271 312 10,000 -1,500 Descending FlightAware ADS-B
11:11AM 29.7844 -98.1301 244° Southwest 270 311 9,600 -1,560 Descending FlightAware ADS-B
11:11AM 29.7761 -98.1501 244° Southwest 268 308 9,200 -1,560 Descending FlightAware ADS-B
11:11AM 29.7674 -98.1708 244° Southwest 267 307 8,800 -1,380 Descending FlightAware ADS-B
11:11AM 29.7593 -98.1899 244° Southwest 267 307 8,500 -1,440 Descending FlightAware ADS-B
11:12AM 29.7511 -98.2094 244° Southwest 265 305 8,100 -1,380 Descending FlightAware ADS-B
11:12AM 29.7427 -98.2291 244° Southwest 262 302 7,800 -1,320 Descending FlightAware ADS-B
11:12AM 29.7346 -98.2484 244° Southwest 261 300 7,400 -1,560 Descending FlightAware ADS-B
11:12AM 29.7263 -98.2680 244° Southwest 260 299 7,000 -1,320 Descending FlightAware ADS-B
11:13AM 29.7177 -98.2882 244° Southwest 260 299 6,700 -1,380 Descending FlightAware ADS-B
11:13AM 29.7076 -98.3117 244° Southwest 260 299 6,200 -1,260 Descending FlightAware ADS-B
11:13AM 29.6994 -98.3312 244° Southwest 258 297 6,000 -420 Descending FlightAware ADS-B
11:14AM 29.6909 -98.3512 244° Southwest 256 295 6,000  Level FlightAware ADS-B
11:14AM 29.6830 -98.3699 244° Southwest 254 292 6,000  Level FlightAware ADS-B
11:14AM 29.6748 -98.3891 244° Southwest 254 292 6,000 -240 Level FlightAware ADS-B
11:14AM 29.6670 -98.4073 244° Southwest 254 292 5,900 -720 Descending FlightAware ADS-B
11:15AM 29.6608 -98.4220 244° Southwest 252 290 5,700 -1,440 Descending FlightAware ADS-B
11:15AM 29.6544 -98.4377 245° Southwest 249 287 5,300 -1,680 Descending FlightAware ADS-B
11:15AM 29.6528 -98.4444 255° West 251 289 5,200 -1,200 Descending FlightAware ADS-B
11:15AM 29.6526 -98.4513 268° West 255 293 5,100 -1,020 Descending FlightAware ADS-B
11:15AM 29.6543 -98.4601 283° West 260 299 5,000 -120 Descending FlightAware ADS-B
11:16AM 29.6852 -98.5099 306° West 257 296 5,000 -240 Level FlightAware ADS-B
11:16AM 29.6980 -98.5285 308° West 237 273 4,800 -480 Descending FlightAware ADS-B
11:18AM 29.7785 -98.6468 308° West 236 272 3,900 -420 Descending FlightAware ADS-B
11:18AM 29.7789 -98.6630 272° West 213 245 3,900 -360 Level FlightAware ADS-B
11:18AM 29.7777 -98.6666 249° West 210 242 3,800 -780 Descending FlightAware ADS-B
11:18AM 29.7753 -98.6707 236° Southwest 207 238 3,800 -780 Level FlightAware ADS-B
11:19AM 29.7734 -98.6731 228° Southwest 204 235 3,700 -960 Descending FlightAware ADS-B
11:19AM 29.7663 -98.6800 220° Southwest 200 230 3,600 -960 Descending FlightAware ADS-B
11:19AM 29.7635 -98.6818 209° Southwest 197 227 3,500 -1,140 Descending FlightAware ADS-B
11:19AM 29.7522 -98.6843 191° South 193 222 3,300 -120 Descending FlightAware ADS-B
11:22AM 29.6217 -98.5872 147° Southeast 190 219 3,200 -180 Descending FlightAware ADS-B
11:22AM 29.6092 -98.5711 147° Southeast 161 185 2,800 -840 Descending Houston Center
11:23AM 29.6056 -98.5669 135° Southeast 129 148 2,600 -600 Descending Houston Center
11:24AM 29.5819 -98.5383 133° Southeast 101 116 2,100 -600 Descending Houston Center
11:25AM 29.5644 -98.5125 128° Southeast 116 133 1,500 -720 Descending Houston Center
11:25AM 29.5606 -98.5097 148° Southeast 118 136 1,400 -540 Descending Houston Center
11:26AM 29.5467 -98.4822 120° Southeast 116 133 1,000 -480 Descending Houston Center